Time;durP1;ratioP1;P1;durP2;ratioP2;P2;SDS_P1;SDS_P2;PMS_P1;PMS_P2;Temp;Humidity;BMP_temperature;BMP_pressure;BME280_temperature;BME280_humidity;BME280_pressure;Samples;Min_cycle;Max_cycle;Signal;HPM_P1;HPM_P2
2022/10/06 00:02:11;;;;;;;;;3.00;1.00;;;;;16.92;59.44;102241.72;5058536;28;45420;-71
2022/10/06 00:04:37;;;;;;;;;0.33;0.33;;;;;16.90;59.25;102246.41;5061971;28;46521;-71
2022/10/06 00:07:02;;;;;;;;;4.00;1.00;;;;;16.78;59.45;102226.09;5078270;28;45288;-71
2022/10/06 00:09:27;;;;;;;;;2.00;2.00;;;;;16.83;59.26;102245.31;5070194;28;45595;-71
2022/10/06 00:11:52;;;;;;;;;4.00;1.00;;;;;16.64;59.47;102228.25;5063928;28;45257;-70
2022/10/06 00:14:18;;;;;;;;;3.00;1.67;;;;;16.80;59.22;102267.91;5069028;28;51043;-70
2022/10/06 00:16:43;;;;;;;;;2.67;2.00;;;;;16.79;59.59;102260.00;5078662;28;45522;-70
2022/10/06 00:19:09;;;;;;;;;2.33;1.00;;;;;16.72;59.63;102263.31;5064108;28;45396;-70
2022/10/06 00:21:34;;;;;;;;;0.33;0.00;;;;;16.57;59.60;102242.41;5058316;28;45577;-70
2022/10/06 00:24:00;;;;;;;;;1.33;0.33;;;;;16.59;59.57;102246.63;5057541;28;45845;-70
2022/10/06 00:26:25;;;;;;;;;2.50;1.25;;;;;16.75;59.59;102274.75;5057913;28;45510;-70
2022/10/06 00:28:51;;;;;;;;;1.67;1.00;;;;;16.70;59.46;102288.63;5057884;28;45371;-71
2022/10/06 00:31:18;;;;;;;;;2.33;0.67;;;;;16.55;59.66;102288.19;5064543;28;45568;-70
2022/10/06 00:33:43;;;;;;;;;2.25;0.50;;;;;16.38;60.10;102256.72;5056007;28;47795;-71
2022/10/06 00:36:09;;;;;;;;;0.00;0.00;;;;;16.58;60.24;102301.31;5072432;28;45548;-72
2022/10/06 00:38:35;;;;;;;;;0.75;0.00;;;;;15.77;60.13;102177.47;5059126;28;45269;-70
2022/10/06 00:41:00;;;;;;;;;4.00;1.00;;;;;16.49;60.29;102299.53;5068467;28;45415;-71
2022/10/06 00:43:42;;;;;;;;;4.00;1.00;;;;;16.51;60.31;102305.59;5061735;28;45921;-71
2022/10/06 00:46:25;;;;;;;;;4.00;2.50;;;;;16.23;60.15;102267.09;5076870;28;45337;-71
2022/10/06 00:48:58;;;;;;;;;3.00;1.00;;;;;16.40;60.44;102301.22;5066258;28;45467;-71
2022/10/06 00:51:26;;;;;;;;;3.00;1.67;;;;;16.44;60.29;102315.22;5058549;28;45342;-71
2022/10/06 00:53:52;;;;;;;;;1.00;1.00;;;;;16.26;60.42;102290.94;5066526;28;45638;-72
2022/10/06 00:56:17;;;;;;;;;3.33;1.00;;;;;16.08;60.17;102261.31;5074616;28;46415;-73
2022/10/06 00:58:43;;;;;;;;;2.00;2.00;;;;;16.26;60.26;102287.41;5064009;28;45318;-72
2022/10/06 01:01:11;;;;;;;;;3.33;1.33;;;;;16.35;60.32;102305.34;5068733;28;45440;-70
2022/10/06 01:03:42;;;;;;;;;1.00;1.00;;;;;16.35;60.49;102324.13;5067922;28;46462;-71
2022/10/06 01:06:07;;;;;;;;;0.00;0.00;;;;;15.59;60.21;102189.91;5060152;28;45282;-70
2022/10/06 01:08:34;;;;;;;;;1.67;1.67;;;;;16.31;60.01;102320.88;5019398;28;45258;-71
2022/10/06 01:11:00;;;;;;;;;2.50;2.00;;;;;16.30;60.23;102329.06;5025549;28;45502;-70
2022/10/06 01:13:27;;;;;;;;;5.00;3.67;;;;;16.23;60.13;102323.44;5046657;28;46083;-70
2022/10/06 01:16:00;;;;;;;;;0.25;0.25;;;;;16.27;60.05;102338.25;5022180;28;46155;-71
2022/10/06 01:18:28;;;;;;;;;6.25;1.00;;;;;16.20;59.96;102323.69;5035060;28;45194;-71
2022/10/06 01:21:19;;;;;;;;;3.00;2.33;;;;;16.22;59.98;102326.25;5039561;28;45522;-72
2022/10/06 01:23:44;;;;;;;;;2.00;1.00;;;;;16.24;60.13;102335.03;5036986;28;45376;-71
2022/10/06 01:26:13;;;;;;;;;3.33;1.00;;;;;16.25;59.95;102336.72;5036495;28;45247;-70
2022/10/06 01:28:39;;;;;;;;;1.00;1.00;;;;;16.13;60.17;102334.16;5020692;28;45396;-70
2022/10/06 01:31:07;;;;;;;;;2.00;0.67;;;;;16.11;60.27;102332.63;5052173;28;45471;-71
2022/10/06 01:33:32;;;;;;;;;1.67;1.00;;;;;16.16;60.15;102345.59;5038923;28;45506;-71
2022/10/06 01:35:57;;;;;;;;;3.00;1.67;;;;;16.17;60.38;102350.81;5040363;28;45394;-72
2022/10/06 01:38:23;;;;;;;;;2.67;1.00;;;;;15.70;60.13;102269.38;5036622;28;45376;-70
2022/10/06 01:40:51;;;;;;;;;5.00;1.00;;;;;16.18;60.11;102354.34;5036463;28;45293;-70
2022/10/06 01:43:17;;;;;;;;;2.00;0.33;;;;;16.16;59.85;102353.66;5051992;28;46883;-70
2022/10/06 01:45:42;;;;;;;;;2.67;1.33;;;;;16.00;60.04;102340.78;5036320;28;45303;-71
2022/10/06 01:48:08;;;;;;;;;4.67;2.00;;;;;16.08;59.71;102357.91;5036099;28;54254;-70
2022/10/06 01:50:33;;;;;;;;;1.00;1.00;;;;;15.89;59.94;102330.22;5052006;28;45450;-71
2022/10/06 01:52:58;;;;;;;;;4.67;1.00;;;;;15.77;59.78;102310.72;5036241;28;49714;-71
2022/10/06 01:55:24;;;;;;;;;2.00;1.00;;;;;15.89;59.96;102339.09;5051936;28;48386;-71
2022/10/06 01:57:50;;;;;;;;;2.00;1.00;;;;;15.99;59.78;102357.88;5037352;28;45443;-70
2022/10/06 02:00:15;;;;;;;;;3.00;2.00;;;;;16.02;59.36;102363.84;5053988;28;45555;-71
2022/10/06 02:02:41;;;;;;;;;3.67;2.00;;;;;16.00;59.82;102359.56;5052252;28;47478;-71
2022/10/06 02:05:07;;;;;;;;;3.33;2.67;;;;;15.99;59.63;102364.09;5036175;28;45462;-72
2022/10/06 02:07:35;;;;;;;;;2.00;1.00;;;;;15.99;59.65;102365.91;5036436;28;45498;-70
2022/10/06 02:10:01;;;;;;;;;1.33;0.00;;;;;15.92;59.71;102364.78;5036022;28;45430;-72
2022/10/06 02:12:28;;;;;;;;;1.33;0.00;;;;;15.83;59.70;102353.09;5035728;28;45554;-72
2022/10/06 02:14:53;;;;;;;;;2.67;1.67;;;;;15.84;59.49;102365.50;5036026;28;45531;-70
2022/10/06 02:17:19;;;;;;;;;3.00;2.00;;;;;15.77;59.32;102358.97;5035641;28;57111;-72
2022/10/06 02:19:44;;;;;;;;;1.33;1.00;;;;;15.80;59.52;102374.78;5037435;28;45483;-71
2022/10/06 02:22:09;;;;;;;;;2.00;1.00;;;;;15.31;58.83;102287.19;5040670;28;45503;-71
2022/10/06 02:24:35;;;;;;;;;2.25;1.00;;;;;15.78;58.80;102376.75;5041788;28;45256;-76
2022/10/06 02:27:00;;;;;;;;;0.25;0.25;;;;;15.76;58.92;102381.41;5039725;28;45599;-70
2022/10/06 02:29:25;;;;;;;;;2.33;2.00;;;;;15.29;59.23;102302.56;5047349;28;45519;-72
2022/10/06 02:31:51;;;;;;;;;0.67;0.67;;;;;15.52;59.40;102353.13;5057146;28;45568;-72
2022/10/06 02:34:16;;;;;;;;;2.33;1.00;;;;;15.66;59.26;102384.09;5048687;28;45437;-70
2022/10/06 02:36:41;;;;;;;;;3.67;2.33;;;;;15.59;59.21;102377.56;5039156;28;45704;-72
2022/10/06 02:39:07;;;;;;;;;3.67;1.67;;;;;15.66;59.38;102393.97;5042354;28;48420;-72
2022/10/06 02:41:32;;;;;;;;;2.33;2.33;;;;;15.67;59.33;102396.50;5039018;28;45524;-70
2022/10/06 02:43:58;;;;;;;;;3.67;2.00;;;;;15.02;59.33;102292.47;5039075;28;45286;-70
2022/10/06 02:46:24;;;;;;;;;7.33;4.33;;;;;15.48;59.63;102365.09;5048198;28;45538;-70
2022/10/06 02:48:50;;;;;;;;;5.00;2.33;;;;;15.66;59.57;102410.91;5057665;28;45260;-71
2022/10/06 02:51:17;;;;;;;;;4.00;3.33;;;;;15.61;59.54;102401.56;5058890;28;46845;-71
2022/10/06 02:53:44;;;;;;;;;1.00;1.00;;;;;15.63;59.28;102413.88;5058780;28;45269;-70
2022/10/06 02:56:16;;;;;;;;;5.00;3.00;;;;;15.59;59.65;102412.41;5059325;28;45493;-71
2022/10/06 02:58:43;;;;;;;;;3.33;3.33;;;;;15.60;59.70;102410.56;5059310;28;45282;-72
2022/10/06 03:01:12;;;;;;;;;4.33;2.00;;;;;15.53;59.25;102403.06;5048105;28;45762;-72
2022/10/06 03:03:38;;;;;;;;;2.00;2.00;;;;;14.97;59.07;102308.06;5058947;28;45376;-71
2022/10/06 03:06:21;;;;;;;;;3.33;2.67;;;;;15.59;59.29;102409.72;5074120;28;45592;-70
2022/10/06 03:08:51;;;;;;;;;9.33;3.67;;;;;15.58;59.38;102420.56;5079121;27;45294;-72
2022/10/06 03:11:21;;;;;;;;;2.33;2.33;;;;;15.55;59.07;102419.00;5078992;27;45324;-70
2022/10/06 03:13:48;;;;;;;;;2.00;0.33;;;;;15.41;58.81;102404.13;5078608;27;45337;-71
2022/10/06 03:16:44;;;;;;;;;4.67;2.00;;;;;15.47;59.16;102426.88;5080968;27;45590;-72
2022/10/06 03:19:10;;;;;;;;;2.33;2.33;;;;;14.78;58.96;102312.34;5053974;28;45359;-72
2022/10/06 03:24:10;;;;;;;;;3.00;2.00;;;;;15.17;59.04;102388.38;5057788;22;45423;-71
2022/10/06 03:26:41;;;;;;;;;4.00;1.33;;;;;15.37;59.40;102437.56;4998485;28;45739;-72
2022/10/06 03:29:07;;;;;;;;;6.00;4.00;;;;;15.23;59.17;102419.16;4999025;28;45531;-72
2022/10/06 03:31:32;;;;;;;;;2.33;1.00;;;;;15.23;59.04;102415.66;4996410;28;47446;-72
2022/10/06 03:33:58;;;;;;;;;1.00;1.00;;;;;15.34;59.22;102435.16;4998678;28;45472;-71
2022/10/06 03:36:25;;;;;;;;;2.00;1.00;;;;;15.22;59.41;102420.16;4996676;28;45354;-72
2022/10/06 03:38:51;;;;;;;;;7.00;3.00;;;;;15.20;59.37;102427.44;4990681;28;45425;-72
2022/10/06 03:41:23;;;;;;;;;6.67;6.33;;;;;14.64;59.34;102331.44;4994007;28;45888;-73
2022/10/06 03:43:50;;;;;;;;;5.33;3.67;;;;;15.31;59.60;102451.50;4994082;28;45648;-72
2022/10/06 03:46:19;;;;;;;;;2.00;2.00;;;;;14.97;59.33;102391.09;4987301;28;45211;-72
2022/10/06 03:48:45;;;;;;;;;3.67;2.00;;;;;15.29;59.51;102448.09;4998706;28;45454;-73
2022/10/06 03:51:17;;;;;;;;;2.67;1.00;;;;;15.17;59.56;102449.16;4998493;28;45645;-70
2022/10/06 03:53:44;;;;;;;;;4.33;3.00;;;;;15.23;59.46;102464.72;4996993;28;45405;-71
2022/10/06 03:56:15;;;;;;;;;4.67;4.33;;;;;15.25;59.70;102476.16;4992691;28;45440;-72
2022/10/06 03:58:43;;;;;;;;;8.00;5.67;;;;;15.25;59.30;102478.81;4983720;28;45572;-72
2022/10/06 04:01:13;;;;;;;;;5.67;3.00;;;;;15.13;59.43;102463.78;4998445;28;46254;-73
2022/10/06 04:03:39;;;;;;;;;3.00;2.33;;;;;15.21;59.89;102490.75;4997163;28;46226;-72
2022/10/06 04:06:06;;;;;;;;;3.00;1.33;;;;;15.14;59.65;102493.13;4998415;28;45476;-72
2022/10/06 04:08:33;;;;;;;;;8.67;4.00;;;;;15.14;59.63;102489.59;4998313;28;45543;-72
2022/10/06 04:11:12;;;;;;;;;3.00;1.67;;;;;15.08;59.85;102490.13;4997834;28;45674;-72
2022/10/06 04:13:38;;;;;;;;;2.00;2.00;;;;;14.85;59.80;102457.28;4998456;28;45366;-72
2022/10/06 04:16:26;;;;;;;;;3.33;3.00;;;;;15.08;59.79;102492.81;4997851;28;45591;-73
2022/10/06 04:18:55;;;;;;;;;2.00;2.00;;;;;15.07;59.95;102504.50;4997239;28;46130;-72
2022/10/06 04:21:21;;;;;;;;;1.67;1.67;;;;;14.93;59.91;102491.44;4996445;28;48289;-72
2022/10/06 04:23:46;;;;;;;;;25.33;14.67;;;;;14.95;59.94;102510.91;4996998;28;45472;-72
2022/10/06 04:26:14;;;;;;;;;2.00;2.00;;;;;15.01;60.12;102515.72;4997663;28;45351;-72
2022/10/06 04:28:42;;;;;;;;;5.67;1.33;;;;;15.00;59.40;102514.03;4998571;28;45262;-71
2022/10/06 04:31:18;;;;;;;;;4.33;2.00;;;;;15.01;59.88;102507.69;4995860;28;46404;-71
2022/10/06 04:33:45;;;;;;;;;5.00;4.00;;;;;15.02;59.95;102522.81;4997551;28;45429;-72
2022/10/06 04:36:21;;;;;;;;;3.00;3.00;;;;;15.00;60.00;102520.22;4997559;28;45287;-71
2022/10/06 04:38:46;;;;;;;;;3.33;2.33;;;;;14.88;59.94;102503.38;4992805;28;45666;-73
2022/10/06 04:41:14;;;;;;;;;3.00;3.00;;;;;14.75;59.96;102483.97;4993526;28;45689;-72
2022/10/06 04:43:40;;;;;;;;;2.00;2.00;;;;;14.96;59.97;102523.31;4995123;28;45234;-72
2022/10/06 04:46:06;;;;;;;;;2.67;2.67;;;;;14.86;60.38;102516.06;4997697;28;45246;-72
2022/10/06 04:48:32;;;;;;;;;5.00;2.33;;;;;14.79;60.14;102509.50;4991517;28;45290;-72
2022/10/06 04:51:06;;;;;;;;;3.00;2.00;;;;;14.86;60.21;102529.44;4988010;28;46302;-72
2022/10/06 04:53:31;;;;;;;;;9.67;2.33;;;;;14.27;60.29;102436.22;4995538;28;45517;-72
2022/10/06 04:55:58;;;;;;;;;5.00;2.00;;;;;14.84;60.27;102535.91;4997763;28;45312;-72
2022/10/06 04:58:24;;;;;;;;;8.00;2.67;;;;;14.85;60.36;102537.63;4997378;28;45476;-71
2022/10/06 05:00:50;;;;;;;;;4.33;3.00;;;;;14.64;60.51;102502.78;4995879;28;48016;-72
2022/10/06 05:03:15;;;;;;;;;3.00;3.00;;;;;14.82;60.33;102544.09;4997068;28;45537;-73
2022/10/06 05:05:40;;;;;;;;;3.00;3.00;;;;;14.70;60.84;102523.66;4997680;28;45475;-72
2022/10/06 05:08:06;;;;;;;;;5.00;3.33;;;;;14.62;60.58;102515.44;4996289;28;45567;-73
2022/10/06 05:10:31;;;;;;;;;4.67;2.67;;;;;14.75;60.90;102542.88;4997226;28;45448;-72
2022/10/06 05:12:56;;;;;;;;;4.67;3.00;;;;;14.72;60.72;102532.41;4997269;28;45580;-72
2022/10/06 05:15:22;;;;;;;;;3.00;2.00;;;;;14.44;60.60;102491.03;4997191;28;45423;-72
2022/10/06 05:17:47;;;;;;;;;4.67;2.00;;;;;14.70;60.77;102539.72;4995438;28;45627;-72
2022/10/06 05:20:12;;;;;;;;;5.67;3.00;;;;;14.55;61.00;102524.94;5002406;28;45391;-74
2022/10/06 05:22:38;;;;;;;;;6.00;4.33;;;;;14.70;61.17;102553.13;4978320;28;45487;-73
2022/10/06 05:25:03;;;;;;;;;15.00;14.33;;;;;14.58;61.18;102538.06;4997129;28;45500;-73
2022/10/06 05:27:29;;;;;;;;;4.00;3.00;;;;;14.54;61.13;102532.09;4979374;28;45342;-71
2022/10/06 05:29:54;;;;;;;;;4.33;3.33;;;;;14.50;61.33;102522.63;4996562;28;54514;-71
2022/10/06 05:32:19;;;;;;;;;3.00;1.67;;;;;14.65;61.36;102558.00;4997076;28;45274;-72
2022/10/06 05:34:45;;;;;;;;;5.00;3.67;;;;;14.52;61.21;102541.25;4998778;28;45806;-73
2022/10/06 05:37:10;;;;;;;;;7.00;4.00;;;;;14.27;61.16;102500.41;4998840;28;45402;-72
2022/10/06 05:39:35;;;;;;;;;6.67;3.33;;;;;14.51;61.28;102542.22;4999576;28;46528;-76
2022/10/06 05:42:01;;;;;;;;;10.00;4.67;;;;;14.49;61.45;102546.84;5010153;28;49364;-73
2022/10/06 05:44:26;;;;;;;;;6.67;3.00;;;;;13.64;61.31;102403.06;4991480;28;57923;-71
2022/10/06 05:46:51;;;;;;;;;5.67;3.00;;;;;14.13;61.25;102500.69;4992052;28;45531;-74
2022/10/06 05:49:17;;;;;;;;;7.67;4.67;;;;;13.93;61.57;102461.31;4995781;28;45689;-74
2022/10/06 05:51:42;;;;;;;;;4.33;4.33;;;;;14.35;61.31;102537.22;4994424;28;45289;-71
2022/10/06 05:54:08;;;;;;;;;4.00;4.00;;;;;14.55;61.39;102573.09;4996849;28;45406;-72
2022/10/06 05:56:35;;;;;;;;;6.33;3.00;;;;;14.51;61.48;102577.88;4982133;28;45591;-73
2022/10/06 05:59:01;;;;;;;;;5.00;4.00;;;;;14.46;61.47;102573.88;5000423;28;46376;-76
2022/10/06 06:01:28;;;;;;;;;6.67;3.00;;;;;13.97;61.58;102487.69;5000780;28;45279;-74
2022/10/06 06:03:54;;;;;;;;;6.67;3.67;;;;;14.50;61.41;102588.69;4999847;28;45415;-72
2022/10/06 06:06:25;;;;;;;;;3.00;2.67;;;;;14.50;61.36;102580.66;4998303;28;45751;-73
2022/10/06 06:08:54;;;;;;;;;4.67;3.00;;;;;14.48;61.30;102593.31;5001329;28;45645;-72
2022/10/06 06:11:26;;;;;;;;;2.33;2.00;;;;;14.48;61.22;102582.63;4999775;28;45318;-73
2022/10/06 06:14:00;;;;;;;;;2.67;2.00;;;;;14.49;61.49;102589.69;5002344;28;45544;-73
2022/10/06 06:16:29;;;;;;;;;2.67;2.67;;;;;14.38;61.39;102576.28;4985296;28;45521;-72
2022/10/06 06:18:55;;;;;;;;;8.67;6.00;;;;;14.50;61.26;102591.38;4997054;28;45841;-73
2022/10/06 06:21:21;;;;;;;;;7.00;4.00;;;;;14.45;61.67;102596.25;4999559;28;45415;-74
2022/10/06 06:23:47;;;;;;;;;3.67;2.67;;;;;14.06;61.47;102518.19;4996203;28;45617;-76
2022/10/06 06:26:22;;;;;;;;;10.00;5.00;;;;;14.58;61.27;102604.97;4984499;28;45531;-73
2022/10/06 06:28:49;;;;;;;;;3.33;3.33;;;;;14.63;61.37;102601.94;4980807;28;47191;-72
2022/10/06 06:31:16;;;;;;;;;8.33;6.67;;;;;14.44;61.02;102559.78;4998920;28;45847;-80
2022/10/06 06:33:42;;;;;;;;;5.67;3.33;;;;;14.59;61.46;102594.13;4985489;28;45615;-76
2022/10/06 06:36:14;;;;;;;;;4.33;4.00;;;;;14.74;61.08;102605.44;4981514;28;45645;-72
2022/10/06 06:38:39;;;;;;;;;4.33;2.67;;;;;14.72;60.90;102599.34;4981745;28;47615;-73
2022/10/06 06:41:12;;;;;;;;;6.00;6.00;;;;;14.78;61.07;102609.53;4998221;28;45381;-74
2022/10/06 06:43:38;;;;;;;;;4.67;4.00;;;;;14.61;61.16;102580.63;4998469;28;45478;-73
2022/10/06 06:46:04;;;;;;;;;7.50;4.00;;;;;14.76;60.69;102598.13;5000205;28;45433;-76
2022/10/06 06:48:29;;;;;;;;;5.00;3.33;;;;;14.89;60.50;102608.69;5004339;28;46744;-74
2022/10/06 06:50:58;;;;;;;;;3.67;3.67;;;;;14.83;60.48;102598.47;5001272;28;46011;-74
2022/10/06 06:53:23;;;;;;;;;8.33;5.67;;;;;15.02;60.42;102619.25;4983422;28;45311;-74
2022/10/06 06:55:49;;;;;;;;;5.33;4.00;;;;;15.00;59.75;102615.81;5000695;28;45215;-79
2022/10/06 06:58:16;;;;;;;;;4.67;2.67;;;;;15.12;59.90;102620.16;4981957;28;46347;-76
2022/10/06 07:00:42;;;;;;;;;75.50;61.25;;;;;15.20;60.22;102631.06;4981136;28;45539;-77
2022/10/06 07:03:11;;;;;;;;;6.67;6.67;;;;;15.33;59.74;102642.47;4998575;28;45397;-75
2022/10/06 07:05:38;;;;;;;;;4.33;3.67;;;;;15.43;59.32;102651.47;4980249;28;45696;-75
2022/10/06 07:08:07;;;;;;;;;8.67;5.67;;;;;15.40;58.86;102646.34;4979569;28;47461;-75
2022/10/06 07:10:35;;;;;;;;;5.33;3.33;;;;;15.19;58.56;102589.19;4999260;28;45471;-75
2022/10/06 07:13:01;;;;;;;;;7.67;5.00;;;;;15.74;58.45;102660.44;4998198;28;45403;-74
2022/10/06 07:26:22;;;;;;;;;3.00;2.00;;;;;19.63;48.94;102648.09;4999022;28;45246;-74
2022/10/06 07:28:48;;;;;;;;;6.67;3.00;;;;;19.94;47.39;102607.13;4998934;28;45486;-75
2022/10/06 07:31:16;;;;;;;;;4.33;4.33;;;;;20.70;46.14;102636.84;4999355;28;45381;-73
2022/10/06 07:33:42;;;;;;;;;4.33;3.00;;;;;21.54;45.08;102673.69;4997655;28;45568;-73
2022/10/06 07:36:08;;;;;;;;;3.67;3.00;;;;;22.02;43.11;102656.50;4999454;28;45495;-74
2022/10/06 07:38:35;;;;;;;;;3.00;2.25;;;;;22.76;42.10;102663.38;4998934;28;45796;-75
2022/10/06 07:41:00;;;;;;;;;5.67;5.67;;;;;23.12;40.71;102600.44;4999272;28;45319;-75
2022/10/06 07:43:26;;;;;;;;;7.67;6.33;;;;;23.77;39.10;102604.47;4999943;28;45447;-74
2022/10/06 07:45:51;;;;;;;;;3.33;3.33;;;;;24.58;38.25;102647.84;5000459;28;45233;-74
2022/10/06 07:48:19;;;;;;;;;3.25;3.25;;;;;24.97;37.18;102657.50;4999110;28;52039;-75
2022/10/06 07:50:50;;;;;;;;;5.00;3.50;;;;;25.33;36.54;102681.13;4998544;28;45561;-74
2022/10/06 07:53:17;;;;;;;;;5.50;3.25;;;;;24.62;35.57;102550.38;5013929;28;45319;-76
2022/10/06 07:55:45;;;;;;;;;4.50;3.50;;;;;25.61;35.64;102690.19;4999197;28;45463;-75
2022/10/06 07:58:15;;;;;;;;;8.00;4.00;;;;;25.97;35.18;102698.25;4998425;28;46573;-73
2022/10/06 08:00:42;;;;;;;;;5.33;4.67;;;;;26.53;34.22;102690.03;4998443;28;45265;-75
2022/10/06 08:03:09;;;;;;;;;5.00;5.00;;;;;27.00;33.56;102696.53;4998561;28;45346;-76
2022/10/06 08:05:35;;;;;;;;;6.25;3.25;;;;;26.74;32.87;102563.53;4998551;28;45507;-75
2022/10/06 08:08:00;;;;;;;;;3.50;2.75;;;;;27.95;32.01;102694.53;4998253;28;45415;-76
2022/10/06 08:10:26;;;;;;;;;3.00;2.00;;;;;28.09;31.08;102666.97;5013666;28;45478;-76
2022/10/06 08:12:51;;;;;;;;;5.75;3.00;;;;;28.39;30.43;102688.34;4998469;28;45406;-74
2022/10/06 08:15:17;;;;;;;;;8.00;6.00;;;;;28.07;30.24;102652.66;4998517;28;45414;-75
2022/10/06 08:17:43;;;;;;;;;6.67;4.00;;;;;27.69;30.48;102621.59;5011362;28;45616;-74
2022/10/06 08:20:11;;;;;;;;;3.25;3.25;;;;;28.20;30.43;102706.47;4996960;28;45433;-76
2022/10/06 08:22:38;;;;;;;;;7.67;6.67;;;;;28.37;29.88;102698.69;4996283;28;45369;-75
2022/10/06 08:25:05;;;;;;;;;5.33;4.00;;;;;28.44;30.22;102670.25;4998798;28;45452;-76
2022/10/06 08:27:31;;;;;;;;;3.25;2.00;;;;;28.64;29.38;102653.75;4996855;28;45519;-76
2022/10/06 08:29:56;;;;;;;;;3.33;3.33;;;;;28.96;28.78;102700.34;4996851;28;45634;-74
2022/10/06 08:32:22;;;;;;;;;4.00;3.25;;;;;29.14;28.72;102703.19;4998687;28;45320;-77
2022/10/06 08:34:49;;;;;;;;;5.00;4.33;;;;;28.60;28.94;102636.06;4980851;28;45516;-78
2022/10/06 08:37:15;;;;;;;;;3.33;3.00;;;;;28.89;29.40;102722.31;4998299;28;45391;-76
2022/10/06 08:39:43;;;;;;;;;2.33;2.33;;;;;28.31;29.05;102650.31;4998009;28;45291;-74
2022/10/06 08:42:17;;;;;;;;;3.00;3.00;;;;;28.28;29.38;102719.13;4998294;28;45271;-74
2022/10/06 08:44:47;;;;;;;;;4.00;3.00;;;;;28.18;29.60;102725.81;4997332;28;45465;-76
2022/10/06 08:47:22;;;;;;;;;1.50;1.50;;;;;27.91;30.03;102724.19;4996917;28;48571;-74
2022/10/06 08:49:51;;;;;;;;;5.00;3.00;;;;;27.85;30.77;102730.50;4996847;28;45567;-73
2022/10/06 08:52:31;;;;;;;;;4.25;2.25;;;;;27.63;30.22;102727.13;4980173;28;45381;-74
2022/10/06 08:55:16;;;;;;;;;6.00;2.00;;;;;26.89;30.35;102637.91;4997913;28;45710;-75
2022/10/06 08:58:03;;;;;;;;;2.67;2.33;;;;;27.21;30.56;102728.28;4997853;28;45791;-75
2022/10/06 09:00:31;;;;;;;;;2.00;2.00;;;;;26.97;30.99;102719.59;4997443;28;45512;-76
2022/10/06 09:02:58;;;;;;;;;6.00;4.00;;;;;26.95;31.93;102737.22;4997736;28;45493;-75
2022/10/06 09:05:26;;;;;;;;;3.00;3.00;;;;;26.79;31.26;102721.19;4997658;28;45317;-75
2022/10/06 09:08:13;;;;;;;;;7.00;4.33;;;;;26.96;31.52;102744.34;4995506;28;47741;-75
2022/10/06 09:11:15;;;;;;;;;3.25;1.50;;;;;26.98;31.27;102742.25;4997144;28;45553;-75
2022/10/06 09:13:52;;;;;;;;;1.50;1.50;;;;;26.55;31.18;102649.75;4996017;28;45560;-75
2022/10/06 09:16:27;;;;;;;;;2.33;2.33;;;;;27.32;31.18;102746.81;4996336;28;45535;-75
2022/10/06 09:19:23;;;;;;;;;21.67;18.67;;;;;27.71;30.43;102743.31;4993802;28;45769;-76
2022/10/06 09:21:51;;;;;;;;;3.00;2.25;;;;;27.53;30.58;102697.47;4954118;28;45732;-75
2022/10/06 09:24:22;;;;;;;;;2.00;2.00;;;;;28.12;30.42;102743.09;4997447;28;45483;-77
2022/10/06 09:26:50;;;;;;;;;4.00;3.00;;;;;28.73;29.47;102741.91;4995534;28;45491;-74
2022/10/06 09:29:16;;;;;;;;;1.00;1.00;;;;;29.24;28.94;102722.75;4997192;28;45719;-78
2022/10/06 09:31:50;;;;;;;;;4.00;4.00;;;;;29.72;27.65;102733.16;4997158;28;45214;-81
2022/10/06 09:34:24;;;;;;;;;2.00;2.00;;;;;29.72;27.87;102744.13;4996235;28;45531;-77
2022/10/06 09:37:11;;;;;;;;;22.67;17.67;;;;;29.54;28.18;102741.31;4996761;28;45488;-77
2022/10/06 09:39:47;;;;;;;;;6.25;2.00;;;;;28.79;28.85;102673.44;4981397;28;48081;-74
2022/10/06 09:42:25;;;;;;;;;5.00;3.00;;;;;28.57;29.20;102732.28;4977201;28;46358;-74
2022/10/06 09:44:51;;;;;;;;;9.67;6.67;;;;;28.39;29.46;102743.91;4995681;28;45463;-73
2022/10/06 09:47:33;;;;;;;;;10.33;7.67;;;;;27.84;30.36;102721.47;4995271;28;45411;-74
2022/10/06 09:50:11;;;;;;;;;9.00;7.33;;;;;27.54;30.86;102731.09;4995521;28;46438;-76
2022/10/06 09:52:37;;;;;;;;;4.67;3.00;;;;;26.84;30.93;102695.00;4996012;28;45446;-75
2022/10/06 09:55:11;;;;;;;;;16.33;15.33;;;;;26.73;31.64;102747.41;4995190;28;45343;-74
2022/10/06 09:57:37;;;;;;;;;6.00;3.00;;;;;26.22;32.78;102734.06;4997077;28;45329;-75
2022/10/06 10:00:25;;;;;;;;;4.67;3.00;;;;;25.45;33.08;102668.69;4997013;28;45428;-75
2022/10/06 10:03:14;;;;;;;;;7.67;3.33;;;;;25.33;33.92;102731.00;4996621;28;45238;-75
2022/10/06 10:05:47;;;;;;;;;6.33;5.00;;;;;24.95;34.25;102741.19;4980550;28;45314;-73
2022/10/06 10:08:12;;;;;;;;;4.67;3.00;;;;;24.62;34.88;102743.47;4979292;28;45469;-73
2022/10/06 10:10:39;;;;;;;;;5.67;4.33;;;;;24.33;35.76;102746.22;4994919;28;48755;-75
2022/10/06 10:13:19;;;;;;;;;5.67;2.33;;;;;23.97;35.68;102742.28;4996250;28;45477;-72
2022/10/06 10:15:57;;;;;;;;;5.33;4.00;;;;;23.60;36.52;102737.66;4996836;28;45374;-72
2022/10/06 10:18:26;;;;;;;;;4.67;3.33;;;;;23.34;37.19;102737.16;4996785;28;45350;-74
2022/10/06 10:20:56;;;;;;;;;11.00;4.00;;;;;23.03;38.16;102731.78;4995099;28;45547;-74
2022/10/06 10:23:29;;;;;;;;;5.00;4.00;;;;;22.82;38.13;102745.91;4996248;28;45746;-74
2022/10/06 10:26:16;;;;;;;;;5.67;5.00;;;;;22.71;38.56;102743.56;4997184;28;45252;-74
2022/10/06 10:29:06;;;;;;;;;12.00;6.33;;;;;22.60;38.54;102741.22;4997062;28;45577;-75
2022/10/06 10:31:48;;;;;;;;;1.33;0.33;;;;;22.54;38.56;102733.81;4995137;28;46989;-73
2022/10/06 10:34:38;;;;;;;;;6.00;4.67;;;;;22.39;39.18;102728.25;4978440;28;46345;-73
2022/10/06 10:37:09;;;;;;;;;3.33;2.33;;;;;22.32;39.24;102732.69;4996834;28;45460;-74
2022/10/06 10:39:40;;;;;;;;;6.67;5.33;;;;;22.05;39.35;102732.06;4979838;28;45339;-74
2022/10/06 10:42:16;;;;;;;;;4.00;4.00;;;;;21.87;39.65;102717.84;4996690;28;47347;-76
2022/10/06 10:44:50;;;;;;;;;3.00;2.33;;;;;21.84;39.68;102729.84;4999991;28;45440;-76
2022/10/06 10:47:16;;;;;;;;;7.33;4.00;;;;;21.86;40.12;102729.69;4998561;28;45369;-74
2022/10/06 10:49:47;;;;;;;;;2.67;1.67;;;;;21.78;39.65;102718.84;5000001;28;45302;-74
2022/10/06 10:52:20;;;;;;;;;5.33;4.00;;;;;21.78;39.72;102708.84;4982126;28;47377;-72
2022/10/06 10:55:03;;;;;;;;;3.67;2.00;;;;;21.84;39.18;102729.00;5008557;28;45392;-74
2022/10/06 10:57:39;;;;;;;;;1.50;1.50;;;;;20.49;40.24;102563.50;4999408;28;45235;-75
2022/10/06 11:00:07;;;;;;;;;4.33;3.00;;;;;21.26;39.95;102700.22;4981926;28;45396;-73
2022/10/06 11:02:34;;;;;;;;;4.00;2.00;;;;;20.86;40.24;102653.13;4999292;28;45484;-74
2022/10/06 11:05:38;;;;;;;;;2.67;1.00;;;;;21.14;39.97;102720.44;4999156;28;45312;-74
2022/10/06 11:08:21;;;;;;;;;6.67;5.00;;;;;21.07;40.30;102714.00;4995341;28;45448;-74
2022/10/06 11:10:52;;;;;;;;;5.00;2.00;;;;;21.08;40.58;102700.31;4999277;28;45379;-75
2022/10/06 11:13:29;;;;;;;;;5.67;5.67;;;;;21.26;40.50;102719.16;4998639;28;46523;-75
2022/10/06 11:16:10;;;;;;;;;5.67;5.00;;;;;21.20;39.65;102704.38;4997681;28;45341;-75
2022/10/06 11:19:13;;;;;;;;;3.33;1.67;;;;;21.02;39.23;102713.63;4998149;28;45370;-75
2022/10/06 11:21:47;;;;;;;;;3.00;3.00;;;;;21.02;39.74;102710.94;4981872;28;45267;-73
2022/10/06 11:24:44;;;;;;;;;0.00;0.00;;;;;20.92;39.44;102674.09;5013922;28;47527;-74
2022/10/06 11:27:24;;;;;;;;;3.67;2.00;;;;;21.29;37.93;102713.41;4999245;28;45379;-75
2022/10/06 11:30:04;;;;;;;;;3.00;2.00;;;;;21.28;38.23;102711.72;4997866;28;45524;-73
2022/10/06 11:32:29;;;;;;;;;5.33;5.00;;;;;21.34;38.29;102716.44;4997434;28;45615;-75
2022/10/06 11:34:55;;;;;;;;;2.00;1.00;;;;;21.39;37.91;102708.69;4998702;28;46769;-72
2022/10/06 11:37:53;;;;;;;;;4.00;2.00;;;;;21.33;37.84;102693.13;4998914;28;45226;-73
2022/10/06 11:40:34;;;;;;;;;7.33;4.00;;;;;21.34;37.56;102686.69;4999054;28;45281;-72
2022/10/06 11:43:05;;;;;;;;;1.67;1.67;;;;;21.59;36.73;102713.75;5013944;28;45507;-73
2022/10/06 11:45:50;;;;;;;;;5.33;5.33;;;;;21.31;36.83;102662.69;4998010;28;46027;-74
2022/10/06 11:48:25;;;;;;;;;4.00;3.00;;;;;21.52;37.30;102679.25;4998529;28;45574;-73
2022/10/06 11:50:54;;;;;;;;;5.00;2.00;;;;;21.58;36.71;102676.88;5014119;28;45451;-74